sensor_id;sensor_type;location;lat;lon;timestamp;P1;durP1;ratioP1;P2;durP2;ratioP2
58637;SDS011;54976;51.510;7.522;2023-03-25T00:02:22;2.40;;;0.60;;
58637;SDS011;54976;51.510;7.522;2023-03-25T00:05:23;7.25;;;0.85;;
58637;SDS011;54976;51.510;7.522;2023-03-25T00:08:24;3.03;;;0.73;;
58637;SDS011;54976;51.510;7.522;2023-03-25T00:11:25;4.60;;;0.98;;
58637;SDS011;54976;51.510;7.522;2023-03-25T00:14:27;2.22;;;0.70;;
58637;SDS011;54976;51.510;7.522;2023-03-25T00:17:28;6.32;;;0.82;;
58637;SDS011;54976;51.510;7.522;2023-03-25T00:20:29;3.75;;;0.68;;
58637;SDS011;54976;51.510;7.522;2023-03-25T00:23:31;0.85;;;0.40;;
58637;SDS011;54976;51.510;7.522;2023-03-25T00:26:32;2.38;;;0.55;;
58637;SDS011;54976;51.510;7.522;2023-03-25T00:29:32;5.10;;;0.95;;
58637;SDS011;54976;51.510;7.522;2023-03-25T00:32:33;5.68;;;0.70;;
58637;SDS011;54976;51.510;7.522;2023-03-25T00:35:35;4.28;;;1.15;;
58637;SDS011;54976;51.510;7.522;2023-03-25T00:38:36;6.00;;;1.10;;
58637;SDS011;54976;51.510;7.522;2023-03-25T00:41:38;2.33;;;0.80;;
58637;SDS011;54976;51.510;7.522;2023-03-25T00:44:41;1.35;;;0.60;;
58637;SDS011;54976;51.510;7.522;2023-03-25T00:47:41;2.17;;;0.50;;
58637;SDS011;54976;51.510;7.522;2023-03-25T00:50:42;2.03;;;1.00;;
58637;SDS011;54976;51.510;7.522;2023-03-25T00:53:43;3.35;;;0.85;;
58637;SDS011;54976;51.510;7.522;2023-03-25T00:56:44;6.30;;;1.00;;
58637;SDS011;54976;51.510;7.522;2023-03-25T00:59:45;6.60;;;1.02;;
58637;SDS011;54976;51.510;7.522;2023-03-25T01:02:47;4.47;;;0.85;;
58637;SDS011;54976;51.510;7.522;2023-03-25T01:05:52;6.97;;;1.05;;
58637;SDS011;54976;51.510;7.522;2023-03-25T01:08:55;4.97;;;0.77;;
58637;SDS011;54976;51.510;7.522;2023-03-25T01:11:57;6.20;;;0.98;;
58637;SDS011;54976;51.510;7.522;2023-03-25T01:14:57;5.93;;;0.85;;
58637;SDS011;54976;51.510;7.522;2023-03-25T01:17:58;4.00;;;1.13;;
58637;SDS011;54976;51.510;7.522;2023-03-25T01:20:59;10.88;;;0.88;;
58637;SDS011;54976;51.510;7.522;2023-03-25T01:23:59;2.97;;;0.75;;
58637;SDS011;54976;51.510;7.522;2023-03-25T01:27:00;8.43;;;1.02;;
58637;SDS011;54976;51.510;7.522;2023-03-25T01:30:01;3.78;;;1.58;;
58637;SDS011;54976;51.510;7.522;2023-03-25T01:33:01;8.65;;;1.15;;
58637;SDS011;54976;51.510;7.522;2023-03-25T01:36:02;5.28;;;0.82;;
58637;SDS011;54976;51.510;7.522;2023-03-25T01:39:09;3.03;;;1.20;;
58637;SDS011;54976;51.510;7.522;2023-03-25T01:42:09;6.57;;;0.98;;
58637;SDS011;54976;51.510;7.522;2023-03-25T01:45:12;6.93;;;0.65;;
58637;SDS011;54976;51.510;7.522;2023-03-25T01:48:23;5.65;;;0.90;;
58637;SDS011;54976;51.510;7.522;2023-03-25T01:51:28;5.28;;;1.00;;
58637;SDS011;54976;51.510;7.522;2023-03-25T01:54:32;7.55;;;1.10;;
58637;SDS011;54976;51.510;7.522;2023-03-25T01:57:38;4.70;;;0.88;;
58637;SDS011;54976;51.510;7.522;2023-03-25T02:03:44;9.25;;;0.95;;
58637;SDS011;54976;51.510;7.522;2023-03-25T02:06:45;7.70;;;1.15;;
58637;SDS011;54976;51.510;7.522;2023-03-25T02:09:53;5.50;;;1.30;;
58637;SDS011;54976;51.510;7.522;2023-03-25T02:12:53;7.57;;;1.20;;
58637;SDS011;54976;51.510;7.522;2023-03-25T02:16:19;4.43;;;0.98;;
58637;SDS011;54976;51.510;7.522;2023-03-25T02:33:03;7.78;;;2.15;;
58637;SDS011;54976;51.510;7.522;2023-03-25T02:46:06;3.72;;;0.82;;
58637;SDS011;54976;51.510;7.522;2023-03-25T02:49:12;6.78;;;0.85;;
58637;SDS011;54976;51.510;7.522;2023-03-25T02:52:30;2.85;;;0.73;;
58637;SDS011;54976;51.510;7.522;2023-03-25T02:55:37;3.28;;;0.60;;
58637;SDS011;54976;51.510;7.522;2023-03-25T02:58:40;9.05;;;1.45;;
58637;SDS011;54976;51.510;7.522;2023-03-25T03:01:43;2.25;;;0.70;;
58637;SDS011;54976;51.510;7.522;2023-03-25T03:04:54;1.75;;;0.60;;
58637;SDS011;54976;51.510;7.522;2023-03-25T03:14:31;3.33;;;0.52;;
58637;SDS011;54976;51.510;7.522;2023-03-25T03:21:15;5.10;;;0.60;;
58637;SDS011;54976;51.510;7.522;2023-03-25T03:24:30;6.55;;;0.90;;
58637;SDS011;54976;51.510;7.522;2023-03-25T03:27:33;4.25;;;0.80;;
58637;SDS011;54976;51.510;7.522;2023-03-25T03:31:13;2.30;;;0.60;;
58637;SDS011;54976;51.510;7.522;2023-03-25T03:34:37;2.03;;;1.07;;
58637;SDS011;54976;51.510;7.522;2023-03-25T03:37:46;0.80;;;0.55;;
58637;SDS011;54976;51.510;7.522;2023-03-25T03:40:53;3.08;;;0.77;;
58637;SDS011;54976;51.510;7.522;2023-03-25T03:43:57;4.13;;;0.90;;
58637;SDS011;54976;51.510;7.522;2023-03-25T03:47:13;1.40;;;0.75;;
58637;SDS011;54976;51.510;7.522;2023-03-25T03:50:22;4.30;;;1.00;;
58637;SDS011;54976;51.510;7.522;2023-03-25T03:53:31;4.88;;;1.13;;
58637;SDS011;54976;51.510;7.522;2023-03-25T04:00:04;3.22;;;0.80;;
58637;SDS011;54976;51.510;7.522;2023-03-25T04:03:19;4.88;;;1.00;;
58637;SDS011;54976;51.510;7.522;2023-03-25T04:06:26;3.05;;;0.60;;
58637;SDS011;54976;51.510;7.522;2023-03-25T04:12:40;5.53;;;0.90;;
58637;SDS011;54976;51.510;7.522;2023-03-25T04:15:44;5.18;;;0.93;;
58637;SDS011;54976;51.510;7.522;2023-03-25T04:18:45;3.45;;;0.85;;
58637;SDS011;54976;51.510;7.522;2023-03-25T04:21:46;1.85;;;0.75;;
58637;SDS011;54976;51.510;7.522;2023-03-25T04:24:48;11.13;;;0.85;;
58637;SDS011;54976;51.510;7.522;2023-03-25T04:27:48;2.90;;;0.80;;
58637;SDS011;54976;51.510;7.522;2023-03-25T04:30:52;2.63;;;0.82;;
58637;SDS011;54976;51.510;7.522;2023-03-25T04:33:54;3.83;;;1.55;;
58637;SDS011;54976;51.510;7.522;2023-03-25T04:36:56;4.40;;;1.20;;
58637;SDS011;54976;51.510;7.522;2023-03-25T04:39:57;3.50;;;1.00;;
58637;SDS011;54976;51.510;7.522;2023-03-25T04:43:00;6.22;;;1.40;;
58637;SDS011;54976;51.510;7.522;2023-03-25T04:46:00;6.47;;;1.08;;
58637;SDS011;54976;51.510;7.522;2023-03-25T04:49:02;4.95;;;1.20;;
58637;SDS011;54976;51.510;7.522;2023-03-25T04:52:05;4.90;;;1.30;;
58637;SDS011;54976;51.510;7.522;2023-03-25T04:55:08;3.92;;;0.88;;
58637;SDS011;54976;51.510;7.522;2023-03-25T04:58:16;4.43;;;1.23;;
58637;SDS011;54976;51.510;7.522;2023-03-25T05:01:23;5.00;;;0.85;;
58637;SDS011;54976;51.510;7.522;2023-03-25T05:04:29;6.90;;;0.93;;
58637;SDS011;54976;51.510;7.522;2023-03-25T05:07:30;7.95;;;1.70;;
58637;SDS011;54976;51.510;7.522;2023-03-25T05:10:32;8.85;;;0.93;;
58637;SDS011;54976;51.510;7.522;2023-03-25T05:13:34;11.70;;;2.67;;
58637;SDS011;54976;51.510;7.522;2023-03-25T05:16:34;7.47;;;0.95;;
58637;SDS011;54976;51.510;7.522;2023-03-25T05:19:35;4.70;;;1.15;;
58637;SDS011;54976;51.510;7.522;2023-03-25T05:22:36;5.75;;;1.08;;
58637;SDS011;54976;51.510;7.522;2023-03-25T05:25:38;3.97;;;0.95;;
58637;SDS011;54976;51.510;7.522;2023-03-25T05:28:39;7.72;;;1.40;;
58637;SDS011;54976;51.510;7.522;2023-03-25T05:31:40;7.72;;;1.20;;
58637;SDS011;54976;51.510;7.522;2023-03-25T05:34:44;7.13;;;1.17;;
58637;SDS011;54976;51.510;7.522;2023-03-25T05:37:47;3.53;;;0.88;;
58637;SDS011;54976;51.510;7.522;2023-03-25T05:40:49;4.85;;;1.00;;
58637;SDS011;54976;51.510;7.522;2023-03-25T05:43:49;7.65;;;0.68;;
58637;SDS011;54976;51.510;7.522;2023-03-25T05:46:50;8.45;;;0.98;;
58637;SDS011;54976;51.510;7.522;2023-03-25T05:49:51;5.95;;;0.88;;
58637;SDS011;54976;51.510;7.522;2023-03-25T05:52:52;4.15;;;0.80;;
58637;SDS011;54976;51.510;7.522;2023-03-25T05:55:54;8.55;;;1.23;;
58637;SDS011;54976;51.510;7.522;2023-03-25T05:58:54;15.00;;;1.13;;
58637;SDS011;54976;51.510;7.522;2023-03-25T06:01:56;3.40;;;0.80;;
58637;SDS011;54976;51.510;7.522;2023-03-25T06:04:57;6.20;;;1.10;;
58637;SDS011;54976;51.510;7.522;2023-03-25T06:07:57;6.32;;;1.15;;
58637;SDS011;54976;51.510;7.522;2023-03-25T06:10:58;6.57;;;1.00;;
58637;SDS011;54976;51.510;7.522;2023-03-25T06:13:59;5.72;;;1.40;;
58637;SDS011;54976;51.510;7.522;2023-03-25T06:17:00;4.40;;;1.13;;
58637;SDS011;54976;51.510;7.522;2023-03-25T06:20:01;6.10;;;1.08;;
58637;SDS011;54976;51.510;7.522;2023-03-25T06:23:06;4.88;;;0.90;;
58637;SDS011;54976;51.510;7.522;2023-03-25T06:26:06;4.20;;;1.20;;
58637;SDS011;54976;51.510;7.522;2023-03-25T06:29:08;9.05;;;1.60;;
58637;SDS011;54976;51.510;7.522;2023-03-25T06:32:09;4.25;;;1.10;;
58637;SDS011;54976;51.510;7.522;2023-03-25T06:35:11;6.47;;;1.10;;
58637;SDS011;54976;51.510;7.522;2023-03-25T06:38:12;3.45;;;0.93;;
58637;SDS011;54976;51.510;7.522;2023-03-25T06:41:13;7.78;;;1.52;;
58637;SDS011;54976;51.510;7.522;2023-03-25T06:44:14;5.28;;;1.20;;
58637;SDS011;54976;51.510;7.522;2023-03-25T06:47:15;3.50;;;1.10;;
58637;SDS011;54976;51.510;7.522;2023-03-25T06:50:16;7.78;;;1.05;;
58637;SDS011;54976;51.510;7.522;2023-03-25T06:53:17;11.90;;;2.20;;
58637;SDS011;54976;51.510;7.522;2023-03-25T06:56:18;5.35;;;1.38;;
58637;SDS011;54976;51.510;7.522;2023-03-25T06:59:18;6.75;;;1.10;;
58637;SDS011;54976;51.510;7.522;2023-03-25T07:02:19;4.38;;;1.40;;
58637;SDS011;54976;51.510;7.522;2023-03-25T07:05:19;9.32;;;1.67;;
58637;SDS011;54976;51.510;7.522;2023-03-25T07:08:20;3.45;;;1.13;;
58637;SDS011;54976;51.510;7.522;2023-03-25T07:11:24;7.13;;;1.42;;
58637;SDS011;54976;51.510;7.522;2023-03-25T07:14:27;6.60;;;1.25;;
58637;SDS011;54976;51.510;7.522;2023-03-25T07:17:28;2.65;;;0.90;;
58637;SDS011;54976;51.510;7.522;2023-03-25T07:20:28;4.30;;;1.45;;
58637;SDS011;54976;51.510;7.522;2023-03-25T07:23:29;3.83;;;1.27;;
58637;SDS011;54976;51.510;7.522;2023-03-25T07:26:30;6.30;;;0.77;;
58637;SDS011;54976;51.510;7.522;2023-03-25T07:29:31;5.60;;;0.70;;
58637;SDS011;54976;51.510;7.522;2023-03-25T07:32:32;5.53;;;1.20;;
58637;SDS011;54976;51.510;7.522;2023-03-25T07:35:32;4.55;;;0.77;;
58637;SDS011;54976;51.510;7.522;2023-03-25T07:38:33;3.88;;;0.70;;
58637;SDS011;54976;51.510;7.522;2023-03-25T07:41:34;7.03;;;0.90;;
58637;SDS011;54976;51.510;7.522;2023-03-25T07:44:35;4.25;;;1.13;;
58637;SDS011;54976;51.510;7.522;2023-03-25T07:47:35;4.63;;;0.88;;
58637;SDS011;54976;51.510;7.522;2023-03-25T07:50:36;9.32;;;1.80;;
58637;SDS011;54976;51.510;7.522;2023-03-25T07:53:37;3.72;;;0.85;;
58637;SDS011;54976;51.510;7.522;2023-03-25T07:56:39;9.20;;;1.08;;
58637;SDS011;54976;51.510;7.522;2023-03-25T07:59:40;7.88;;;1.42;;
58637;SDS011;54976;51.510;7.522;2023-03-25T08:02:41;2.65;;;0.70;;
58637;SDS011;54976;51.510;7.522;2023-03-25T08:05:47;9.15;;;1.25;;
58637;SDS011;54976;51.510;7.522;2023-03-25T08:08:48;3.92;;;1.20;;
58637;SDS011;54976;51.510;7.522;2023-03-25T08:11:48;7.28;;;1.85;;
58637;SDS011;54976;51.510;7.522;2023-03-25T08:14:50;11.23;;;1.60;;
58637;SDS011;54976;51.510;7.522;2023-03-25T08:17:51;11.90;;;1.52;;
58637;SDS011;54976;51.510;7.522;2023-03-25T08:20:51;9.02;;;1.63;;
58637;SDS011;54976;51.510;7.522;2023-03-25T08:23:53;6.00;;;1.10;;
58637;SDS011;54976;51.510;7.522;2023-03-25T08:26:57;4.50;;;1.17;;
58637;SDS011;54976;51.510;7.522;2023-03-25T08:30:02;7.00;;;1.08;;
58637;SDS011;54976;51.510;7.522;2023-03-25T08:33:08;6.50;;;1.55;;
58637;SDS011;54976;51.510;7.522;2023-03-25T08:36:09;8.40;;;1.27;;
58637;SDS011;54976;51.510;7.522;2023-03-25T08:39:13;5.50;;;1.17;;
58637;SDS011;54976;51.510;7.522;2023-03-25T08:42:16;9.25;;;1.15;;
58637;SDS011;54976;51.510;7.522;2023-03-25T08:45:17;3.17;;;0.75;;
58637;SDS011;54976;51.510;7.522;2023-03-25T08:48:18;5.82;;;0.88;;
58637;SDS011;54976;51.510;7.522;2023-03-25T08:51:19;6.93;;;1.55;;
58637;SDS011;54976;51.510;7.522;2023-03-25T08:54:20;8.50;;;1.10;;
58637;SDS011;54976;51.510;7.522;2023-03-25T08:57:21;8.65;;;1.20;;
58637;SDS011;54976;51.510;7.522;2023-03-25T09:00:21;10.13;;;1.27;;
58637;SDS011;54976;51.510;7.522;2023-03-25T09:03:24;4.20;;;1.00;;
58637;SDS011;54976;51.510;7.522;2023-03-25T09:06:26;9.32;;;1.10;;
58637;SDS011;54976;51.510;7.522;2023-03-25T09:09:26;10.90;;;1.42;;
58637;SDS011;54976;51.510;7.522;2023-03-25T09:12:28;12.45;;;1.50;;
58637;SDS011;54976;51.510;7.522;2023-03-25T09:15:29;7.93;;;1.30;;
58637;SDS011;54976;51.510;7.522;2023-03-25T09:18:30;7.55;;;1.50;;
58637;SDS011;54976;51.510;7.522;2023-03-25T09:21:31;11.55;;;1.23;;
58637;SDS011;54976;51.510;7.522;2023-03-25T09:24:32;8.25;;;1.40;;
58637;SDS011;54976;51.510;7.522;2023-03-25T09:27:33;12.25;;;1.38;;
58637;SDS011;54976;51.510;7.522;2023-03-25T09:30:34;5.65;;;0.93;;
58637;SDS011;54976;51.510;7.522;2023-03-25T09:33:35;12.02;;;1.42;;
58637;SDS011;54976;51.510;7.522;2023-03-25T09:36:36;9.80;;;1.48;;
58637;SDS011;54976;51.510;7.522;2023-03-25T09:39:36;7.80;;;1.10;;
58637;SDS011;54976;51.510;7.522;2023-03-25T09:45:41;5.80;;;1.27;;
58637;SDS011;54976;51.510;7.522;2023-03-25T09:48:46;6.95;;;1.70;;
58637;SDS011;54976;51.510;7.522;2023-03-25T09:51:48;13.20;;;1.73;;
58637;SDS011;54976;51.510;7.522;2023-03-25T09:54:56;7.07;;;1.40;;
58637;SDS011;54976;51.510;7.522;2023-03-25T09:58:02;15.25;;;1.77;;
58637;SDS011;54976;51.510;7.522;2023-03-25T10:04:17;9.35;;;1.13;;
58637;SDS011;54976;51.510;7.522;2023-03-25T10:27:39;8.77;;;1.60;;
58637;SDS011;54976;51.510;7.522;2023-03-25T10:30:45;13.52;;;1.73;;
58637;SDS011;54976;51.510;7.522;2023-03-25T10:33:53;7.25;;;1.30;;
58637;SDS011;54976;51.510;7.522;2023-03-25T10:36:59;7.15;;;1.33;;
58637;SDS011;54976;51.510;7.522;2023-03-25T10:49:48;11.55;;;1.58;;
58637;SDS011;54976;51.510;7.522;2023-03-25T10:52:51;10.30;;;1.48;;
58637;SDS011;54976;51.510;7.522;2023-03-25T10:55:56;11.40;;;1.70;;
58637;SDS011;54976;51.510;7.522;2023-03-25T10:59:04;9.30;;;1.83;;
58637;SDS011;54976;51.510;7.522;2023-03-25T11:02:27;10.00;;;1.52;;
58637;SDS011;54976;51.510;7.522;2023-03-25T11:05:29;13.32;;;3.53;;
58637;SDS011;54976;51.510;7.522;2023-03-25T11:08:30;16.05;;;2.08;;
58637;SDS011;54976;51.510;7.522;2023-03-25T11:11:31;15.73;;;2.20;;
58637;SDS011;54976;51.510;7.522;2023-03-25T11:14:35;7.75;;;1.67;;
58637;SDS011;54976;51.510;7.522;2023-03-25T11:17:37;12.23;;;1.80;;
58637;SDS011;54976;51.510;7.522;2023-03-25T11:20:44;8.50;;;1.48;;
58637;SDS011;54976;51.510;7.522;2023-03-25T11:23:50;4.47;;;1.17;;
58637;SDS011;54976;51.510;7.522;2023-03-25T11:26:51;10.98;;;1.77;;
58637;SDS011;54976;51.510;7.522;2023-03-25T11:30:03;7.70;;;0.93;;
58637;SDS011;54976;51.510;7.522;2023-03-25T11:33:13;6.95;;;1.45;;
58637;SDS011;54976;51.510;7.522;2023-03-25T11:36:24;6.43;;;1.02;;
58637;SDS011;54976;51.510;7.522;2023-03-25T11:39:29;7.25;;;1.52;;
58637;SDS011;54976;51.510;7.522;2023-03-25T11:42:38;8.30;;;1.65;;
58637;SDS011;54976;51.510;7.522;2023-03-25T11:45:41;9.20;;;1.83;;
58637;SDS011;54976;51.510;7.522;2023-03-25T11:48:45;5.45;;;1.40;;
58637;SDS011;54976;51.510;7.522;2023-03-25T11:51:46;8.85;;;1.50;;
58637;SDS011;54976;51.510;7.522;2023-03-25T11:54:48;6.13;;;1.35;;
58637;SDS011;54976;51.510;7.522;2023-03-25T11:57:52;11.65;;;2.00;;
58637;SDS011;54976;51.510;7.522;2023-03-25T12:01:03;7.75;;;1.20;;
58637;SDS011;54976;51.510;7.522;2023-03-25T12:04:20;11.85;;;1.70;;
58637;SDS011;54976;51.510;7.522;2023-03-25T12:07:22;11.63;;;1.73;;
58637;SDS011;54976;51.510;7.522;2023-03-25T12:10:27;5.75;;;1.33;;
58637;SDS011;54976;51.510;7.522;2023-03-25T12:13:45;13.75;;;1.90;;
58637;SDS011;54976;51.510;7.522;2023-03-25T12:47:41;5.00;;;1.92;;
58637;SDS011;54976;51.510;7.522;2023-03-25T12:57:19;3.13;;;0.70;;
58637;SDS011;54976;51.510;7.522;2023-03-25T13:00:38;7.22;;;1.05;;
58637;SDS011;54976;51.510;7.522;2023-03-25T13:07:12;7.43;;;1.17;;
58637;SDS011;54976;51.510;7.522;2023-03-25T13:10:19;3.92;;;0.90;;
58637;SDS011;54976;51.510;7.522;2023-03-25T13:13:22;7.63;;;1.42;;
58637;SDS011;54976;51.510;7.522;2023-03-25T13:16:26;8.68;;;1.10;;
58637;SDS011;54976;51.510;7.522;2023-03-25T13:19:31;7.28;;;0.95;;
58637;SDS011;54976;51.510;7.522;2023-03-25T13:22:37;13.57;;;1.17;;
58637;SDS011;54976;51.510;7.522;2023-03-25T13:25:47;9.85;;;1.33;;
58637;SDS011;54976;51.510;7.522;2023-03-25T13:28:54;7.07;;;1.23;;
58637;SDS011;54976;51.510;7.522;2023-03-25T13:31:59;5.82;;;1.23;;
58637;SDS011;54976;51.510;7.522;2023-03-25T13:35:10;15.70;;;2.17;;
58637;SDS011;54976;51.510;7.522;2023-03-25T13:38:34;10.35;;;1.67;;
58637;SDS011;54976;51.510;7.522;2023-03-25T13:42:02;9.85;;;1.80;;
58637;SDS011;54976;51.510;7.522;2023-03-25T13:45:20;8.48;;;1.65;;
58637;SDS011;54976;51.510;7.522;2023-03-25T13:48:26;7.15;;;2.20;;
58637;SDS011;54976;51.510;7.522;2023-03-25T13:51:37;5.82;;;1.00;;
58637;SDS011;54976;51.510;7.522;2023-03-25T13:54:40;10.50;;;1.48;;
58637;SDS011;54976;51.510;7.522;2023-03-25T14:11:41;3.35;;;0.80;;
58637;SDS011;54976;51.510;7.522;2023-03-25T14:18:47;3.35;;;0.63;;
58637;SDS011;54976;51.510;7.522;2023-03-25T14:21:53;1.95;;;0.47;;
58637;SDS011;54976;51.510;7.522;2023-03-25T14:24:58;4.63;;;0.82;;
58637;SDS011;54976;51.510;7.522;2023-03-25T14:28:04;4.93;;;0.80;;
58637;SDS011;54976;51.510;7.522;2023-03-25T14:34:24;6.50;;;0.80;;
58637;SDS011;54976;51.510;7.522;2023-03-25T14:37:27;3.72;;;0.50;;
58637;SDS011;54976;51.510;7.522;2023-03-25T14:43:50;4.70;;;0.88;;
58637;SDS011;54976;51.510;7.522;2023-03-25T14:53:25;2.80;;;0.77;;
58637;SDS011;54976;51.510;7.522;2023-03-25T14:56:36;8.52;;;1.02;;
58637;SDS011;54976;51.510;7.522;2023-03-25T14:59:48;3.78;;;0.80;;
58637;SDS011;54976;51.510;7.522;2023-03-25T15:03:04;7.50;;;0.70;;
58637;SDS011;54976;51.510;7.522;2023-03-25T15:06:21;4.53;;;0.80;;
58637;SDS011;54976;51.510;7.522;2023-03-25T15:09:31;4.40;;;0.50;;
58637;SDS011;54976;51.510;7.522;2023-03-25T15:12:32;2.28;;;0.47;;
58637;SDS011;54976;51.510;7.522;2023-03-25T15:25:02;1.70;;;0.40;;
58637;SDS011;54976;51.510;7.522;2023-03-25T15:57:43;4.13;;;0.85;;
58637;SDS011;54976;51.510;7.522;2023-03-25T16:00:49;4.78;;;0.82;;
58637;SDS011;54976;51.510;7.522;2023-03-25T16:04:04;5.45;;;1.10;;
58637;SDS011;54976;51.510;7.522;2023-03-25T16:07:22;5.57;;;1.33;;
58637;SDS011;54976;51.510;7.522;2023-03-25T16:10:28;4.65;;;0.85;;
58637;SDS011;54976;51.510;7.522;2023-03-25T16:13:35;4.15;;;0.57;;
58637;SDS011;54976;51.510;7.522;2023-03-25T16:16:36;8.27;;;1.10;;
58637;SDS011;54976;51.510;7.522;2023-03-25T16:22:47;7.05;;;1.00;;
58637;SDS011;54976;51.510;7.522;2023-03-25T16:25:50;8.57;;;1.83;;
58637;SDS011;54976;51.510;7.522;2023-03-25T16:28:50;7.20;;;1.40;;
58637;SDS011;54976;51.510;7.522;2023-03-25T16:31:56;6.15;;;1.33;;
58637;SDS011;54976;51.510;7.522;2023-03-25T16:34:57;7.72;;;1.20;;
58637;SDS011;54976;51.510;7.522;2023-03-25T16:37:58;12.70;;;2.60;;
58637;SDS011;54976;51.510;7.522;2023-03-25T16:41:01;14.57;;;2.80;;
58637;SDS011;54976;51.510;7.522;2023-03-25T16:44:03;10.00;;;1.73;;
58637;SDS011;54976;51.510;7.522;2023-03-25T16:47:04;6.50;;;1.20;;
58637;SDS011;54976;51.510;7.522;2023-03-25T16:50:05;9.00;;;1.48;;
58637;SDS011;54976;51.510;7.522;2023-03-25T16:53:14;6.88;;;1.60;;
58637;SDS011;54976;51.510;7.522;2023-03-25T16:59:19;6.30;;;1.60;;
58637;SDS011;54976;51.510;7.522;2023-03-25T17:02:30;4.22;;;1.23;;
58637;SDS011;54976;51.510;7.522;2023-03-25T17:05:51;19.13;;;2.00;;
58637;SDS011;54976;51.510;7.522;2023-03-25T17:08:56;12.90;;;2.13;;
58637;SDS011;54976;51.510;7.522;2023-03-25T17:11:58;8.07;;;2.30;;
58637;SDS011;54976;51.510;7.522;2023-03-25T17:15:05;8.32;;;1.50;;
58637;SDS011;54976;51.510;7.522;2023-03-25T17:18:08;10.15;;;2.13;;
58637;SDS011;54976;51.510;7.522;2023-03-25T17:21:21;8.57;;;1.63;;
58637;SDS011;54976;51.510;7.522;2023-03-25T17:24:26;8.35;;;1.42;;
58637;SDS011;54976;51.510;7.522;2023-03-25T17:27:34;11.82;;;2.10;;
58637;SDS011;54976;51.510;7.522;2023-03-25T17:30:40;7.80;;;2.20;;
58637;SDS011;54976;51.510;7.522;2023-03-25T17:33:51;10.68;;;1.77;;
58637;SDS011;54976;51.510;7.522;2023-03-25T17:40:08;12.25;;;1.75;;
58637;SDS011;54976;51.510;7.522;2023-03-25T17:43:19;11.70;;;2.13;;
58637;SDS011;54976;51.510;7.522;2023-03-25T17:46:24;11.07;;;2.47;;
58637;SDS011;54976;51.510;7.522;2023-03-25T17:49:26;9.77;;;2.25;;
58637;SDS011;54976;51.510;7.522;2023-03-25T17:52:26;10.02;;;1.70;;
58637;SDS011;54976;51.510;7.522;2023-03-25T17:55:27;11.80;;;2.45;;
58637;SDS011;54976;51.510;7.522;2023-03-25T17:58:28;12.45;;;1.83;;
58637;SDS011;54976;51.510;7.522;2023-03-25T18:01:29;12.73;;;2.38;;
58637;SDS011;54976;51.510;7.522;2023-03-25T18:04:31;7.15;;;1.95;;
58637;SDS011;54976;51.510;7.522;2023-03-25T18:07:32;9.77;;;1.60;;
58637;SDS011;54976;51.510;7.522;2023-03-25T18:10:33;10.25;;;1.67;;
58637;SDS011;54976;51.510;7.522;2023-03-25T18:13:35;17.65;;;2.40;;
58637;SDS011;54976;51.510;7.522;2023-03-25T18:16:36;10.25;;;1.42;;
58637;SDS011;54976;51.510;7.522;2023-03-25T18:19:37;11.63;;;1.58;;
58637;SDS011;54976;51.510;7.522;2023-03-25T18:22:37;7.50;;;1.27;;
58637;SDS011;54976;51.510;7.522;2023-03-25T18:25:38;12.32;;;1.75;;
58637;SDS011;54976;51.510;7.522;2023-03-25T18:28:40;14.65;;;1.98;;
58637;SDS011;54976;51.510;7.522;2023-03-25T18:31:42;7.63;;;1.33;;
58637;SDS011;54976;51.510;7.522;2023-03-25T18:34:43;15.27;;;1.80;;
58637;SDS011;54976;51.510;7.522;2023-03-25T18:37:43;15.18;;;1.90;;
58637;SDS011;54976;51.510;7.522;2023-03-25T18:40:46;9.65;;;1.88;;
58637;SDS011;54976;51.510;7.522;2023-03-25T18:43:47;9.60;;;1.80;;
58637;SDS011;54976;51.510;7.522;2023-03-25T18:46:47;10.35;;;2.13;;
58637;SDS011;54976;51.510;7.522;2023-03-25T18:49:48;11.45;;;2.38;;
58637;SDS011;54976;51.510;7.522;2023-03-25T18:52:49;10.10;;;1.63;;
58637;SDS011;54976;51.510;7.522;2023-03-25T18:55:50;11.02;;;1.75;;
58637;SDS011;54976;51.510;7.522;2023-03-25T18:58:51;4.90;;;1.00;;
58637;SDS011;54976;51.510;7.522;2023-03-25T19:01:52;8.10;;;1.75;;
58637;SDS011;54976;51.510;7.522;2023-03-25T19:04:53;14.25;;;2.00;;
58637;SDS011;54976;51.510;7.522;2023-03-25T19:07:53;8.77;;;1.77;;
58637;SDS011;54976;51.510;7.522;2023-03-25T19:10:54;15.25;;;3.15;;
58637;SDS011;54976;51.510;7.522;2023-03-25T19:13:54;10.57;;;1.85;;
58637;SDS011;54976;51.510;7.522;2023-03-25T19:16:55;14.25;;;2.17;;
58637;SDS011;54976;51.510;7.522;2023-03-25T19:19:56;15.27;;;2.83;;
58637;SDS011;54976;51.510;7.522;2023-03-25T19:22:57;15.18;;;2.55;;
58637;SDS011;54976;51.510;7.522;2023-03-25T19:25:58;14.48;;;2.55;;
58637;SDS011;54976;51.510;7.522;2023-03-25T19:29:00;15.35;;;1.95;;
58637;SDS011;54976;51.510;7.522;2023-03-25T19:32:00;11.45;;;1.95;;
58637;SDS011;54976;51.510;7.522;2023-03-25T19:35:01;12.00;;;2.13;;
58637;SDS011;54976;51.510;7.522;2023-03-25T19:38:03;8.95;;;1.45;;
58637;SDS011;54976;51.510;7.522;2023-03-25T19:41:07;14.52;;;2.30;;
58637;SDS011;54976;51.510;7.522;2023-03-25T19:44:09;11.57;;;1.63;;
58637;SDS011;54976;51.510;7.522;2023-03-25T19:47:10;8.00;;;2.00;;
58637;SDS011;54976;51.510;7.522;2023-03-25T19:50:11;13.55;;;1.98;;
58637;SDS011;54976;51.510;7.522;2023-03-25T19:53:17;9.15;;;1.73;;
58637;SDS011;54976;51.510;7.522;2023-03-25T19:56:18;7.03;;;1.20;;
58637;SDS011;54976;51.510;7.522;2023-03-25T19:59:19;6.45;;;2.33;;
58637;SDS011;54976;51.510;7.522;2023-03-25T20:02:19;5.75;;;1.42;;
58637;SDS011;54976;51.510;7.522;2023-03-25T20:05:20;5.43;;;2.05;;
58637;SDS011;54976;51.510;7.522;2023-03-25T20:08:21;4.68;;;1.63;;
58637;SDS011;54976;51.510;7.522;2023-03-25T20:11:22;5.63;;;2.03;;
58637;SDS011;54976;51.510;7.522;2023-03-25T20:14:22;8.48;;;2.13;;
58637;SDS011;54976;51.510;7.522;2023-03-25T20:17:23;7.43;;;2.42;;
58637;SDS011;54976;51.510;7.522;2023-03-25T20:20:24;12.18;;;4.82;;
58637;SDS011;54976;51.510;7.522;2023-03-25T20:23:25;16.90;;;6.25;;
58637;SDS011;54976;51.510;7.522;2023-03-25T20:26:25;15.43;;;5.38;;
58637;SDS011;54976;51.510;7.522;2023-03-25T20:29:26;7.47;;;2.17;;
58637;SDS011;54976;51.510;7.522;2023-03-25T20:32:27;9.88;;;2.10;;
58637;SDS011;54976;51.510;7.522;2023-03-25T20:35:31;8.65;;;2.40;;
58637;SDS011;54976;51.510;7.522;2023-03-25T20:38:31;12.40;;;2.78;;
58637;SDS011;54976;51.510;7.522;2023-03-25T20:41:32;12.90;;;2.38;;
58637;SDS011;54976;51.510;7.522;2023-03-25T20:44:33;8.65;;;2.50;;
58637;SDS011;54976;51.510;7.522;2023-03-25T20:47:34;9.82;;;2.70;;
58637;SDS011;54976;51.510;7.522;2023-03-25T20:50:34;11.82;;;3.45;;
58637;SDS011;54976;51.510;7.522;2023-03-25T20:53:35;14.25;;;3.70;;
58637;SDS011;54976;51.510;7.522;2023-03-25T20:56:36;11.13;;;2.97;;
58637;SDS011;54976;51.510;7.522;2023-03-25T20:59:37;11.13;;;3.42;;
58637;SDS011;54976;51.510;7.522;2023-03-25T21:02:37;15.68;;;3.92;;
58637;SDS011;54976;51.510;7.522;2023-03-25T21:05:38;20.63;;;3.45;;
58637;SDS011;54976;51.510;7.522;2023-03-25T21:08:39;11.32;;;3.20;;
58637;SDS011;54976;51.510;7.522;2023-03-25T21:11:40;17.55;;;2.95;;
58637;SDS011;54976;51.510;7.522;2023-03-25T21:14:41;15.68;;;3.63;;
58637;SDS011;54976;51.510;7.522;2023-03-25T21:17:41;15.45;;;2.70;;
58637;SDS011;54976;51.510;7.522;2023-03-25T21:20:46;14.23;;;2.65;;
58637;SDS011;54976;51.510;7.522;2023-03-25T21:23:54;14.05;;;2.00;;
58637;SDS011;54976;51.510;7.522;2023-03-25T21:26:55;15.95;;;2.80;;
58637;SDS011;54976;51.510;7.522;2023-03-25T21:29:56;17.45;;;2.65;;
58637;SDS011;54976;51.510;7.522;2023-03-25T21:32:56;9.35;;;1.63;;
58637;SDS011;54976;51.510;7.522;2023-03-25T21:35:58;10.00;;;1.67;;
58637;SDS011;54976;51.510;7.522;2023-03-25T21:39:00;10.05;;;2.53;;
58637;SDS011;54976;51.510;7.522;2023-03-25T21:42:03;7.03;;;1.58;;